Time;durP1;ratioP1;P1;durP2;ratioP2;P2;SDS_P1;SDS_P2;PMS_P1;PMS_P2;Temp;Humidity;BMP_temperature;BMP_pressure;BME280_temperature;BME280_humidity;BME280_pressure;Samples;Min_cycle;Max_cycle;Signal;HPM_P1;HPM_P2
2021/06/03 00:00:31;;;;;;;0.70;0.60;;;20.90;80.80;;;20.96;100.00;-21249.28;5053267;28;20908;-79
2021/06/03 00:02:59;;;;;;;0.70;0.60;;;20.60;85.00;;;20.74;100.00;-21243.56;5037911;28;20952;-80
2021/06/03 00:05:30;;;;;;;0.80;0.70;;;20.40;88.40;;;20.60;100.00;-21239.59;5052438;28;20445;-80
2021/06/03 00:07:58;;;;;;;0.80;0.60;;;20.30;90.60;;;20.47;100.00;-21236.19;5068035;28;20455;-80
2021/06/03 00:10:34;;;;;;;0.80;0.60;;;20.10;91.90;;;20.28;100.00;-21231.13;5052996;28;20769;-80
2021/06/03 00:13:03;;;;;;;0.80;0.70;;;20.00;93.40;;;20.11;100.00;-21226.50;5066768;28;20494;-80
2021/06/03 00:15:34;;;;;;;0.70;0.60;;;19.80;95.40;;;20.00;100.00;-21223.75;5055286;28;20464;-80
2021/06/03 00:18:02;;;;;;;0.80;0.70;;;19.70;96.40;;;19.97;100.00;-21222.78;5072793;28;20473;-80
2021/06/03 00:20:33;;;;;;;0.80;0.70;;;19.60;98.30;;;19.97;100.00;-21222.78;5072583;28;20969;-80
2021/06/03 00:23:02;;;;;;;0.80;0.67;;;19.60;99.20;;;19.96;100.00;-21222.53;5037261;28;20460;-80
2021/06/03 00:25:30;;;;;;;0.80;0.70;;;19.60;99.90;;;19.87;100.00;-21220.19;5055014;28;20436;-80
2021/06/03 00:27:58;;;;;;;0.80;0.70;;;19.50;99.90;;;19.73;100.00;-21216.50;5053120;28;20523;-79
2021/06/03 00:30:27;;;;;;;0.80;0.60;;;19.40;99.90;;;19.70;100.00;-21215.69;5052282;28;20931;-79
2021/06/03 00:32:56;;;;;;;0.80;0.60;;;19.30;99.90;;;19.77;100.00;-21217.59;5053282;28;20453;-79
2021/06/03 00:35:24;;;;;;;0.80;0.60;;;19.40;99.90;;;19.73;100.00;-21216.38;5072212;28;20869;-80
2021/06/03 00:37:52;;;;;;;0.80;0.70;;;19.40;99.90;;;19.67;100.00;-21214.72;5056157;28;20466;-78
2021/06/03 00:40:22;;;;;;;0.80;0.60;;;19.30;99.90;;;19.56;100.00;-21211.84;5043753;28;20962;-80
2021/06/03 00:42:50;;;;;;;1.03;0.93;;;19.20;99.90;;;19.55;100.00;-21211.59;5061605;28;20438;-79
2021/06/03 00:45:22;;;;;;;0.80;0.60;;;19.20;99.90;;;19.46;100.00;-21209.13;5062664;28;20443;-80
2021/06/03 00:47:52;;;;;;;0.80;0.60;;;19.10;99.90;;;19.34;100.00;-21205.84;5052730;28;20448;-79
2021/06/03 00:50:26;;;;;;;0.70;0.60;;;19.00;99.90;;;19.16;100.00;-21201.19;5040868;28;20436;-80
2021/06/03 00:52:59;;;;;;;0.80;0.67;;;18.80;99.90;;;19.06;100.00;-21198.59;5052054;28;20454;-80
2021/06/03 00:55:34;;;;;;;0.80;0.60;;;18.70;99.90;;;18.91;100.00;-21194.50;5054336;28;20550;-79
2021/06/03 00:58:04;;;;;;;0.80;0.60;;;18.50;99.90;;;18.80;100.00;-21191.63;5051837;28;20427;-79
2021/06/03 01:00:32;;;;;;;0.77;0.60;;;18.40;99.90;;;18.79;100.00;-21191.34;5035809;28;20443;-79
2021/06/03 01:03:05;;;;;;;0.80;0.70;;;18.40;99.90;;;18.65;100.00;-21187.50;5053658;28;20440;-79
2021/06/03 01:05:40;;;;;;;0.80;0.67;;;18.30;99.90;;;18.54;100.00;-21184.50;5056236;28;20461;-80
2021/06/03 01:08:13;;;;;;;0.70;0.60;;;18.20;99.90;;;18.46;100.00;-21182.31;5047283;28;20472;-79
2021/06/03 01:10:50;;;;;;;0.70;0.60;;;18.10;99.90;;;18.46;100.00;-21182.31;5067839;28;20430;-79
2021/06/03 01:13:32;;;;;;;0.80;0.70;;;18.10;99.90;;;18.42;100.00;-21181.22;5050768;28;20852;-79
2021/06/03 01:16:03;;;;;;;0.70;0.60;;;18.00;99.90;;;18.38;100.00;-21180.25;5071833;28;20591;-79
2021/06/03 01:18:36;;;;;;;0.80;0.70;;;18.00;99.90;;;18.33;100.00;-21179.00;5053313;28;20454;-79
2021/06/03 01:21:11;;;;;;;0.80;0.70;;;18.00;99.90;;;18.39;100.00;-21180.53;5055423;28;20507;-79
2021/06/03 01:23:47;;;;;;;0.80;0.60;;;17.90;99.90;;;18.35;100.00;-21179.44;5071538;28;20443;-79
2021/06/03 01:26:18;;;;;;;0.80;0.60;;;18.00;99.90;;;18.38;100.00;-21180.13;5055577;28;20437;-79
2021/06/03 01:28:50;;;;;;;0.70;0.60;;;18.00;99.90;;;18.45;100.00;-21182.03;5055832;28;20465;-79
2021/06/03 01:31:20;;;;;;;0.80;0.70;;;18.10;99.90;;;18.51;100.00;-21183.66;5072027;28;20856;-79
2021/06/03 01:33:48;;;;;;;0.80;0.70;;;18.20;99.90;;;18.48;100.00;-21182.97;5070728;28;20577;-79
2021/06/03 01:36:19;;;;;;;0.80;0.70;;;18.10;99.90;;;18.56;100.00;-21185.03;5072119;28;20496;-79
2021/06/03 01:38:49;;;;;;;0.80;0.70;;;18.20;99.90;;;18.59;100.00;-21185.84;5071860;28;20484;-79
2021/06/03 01:41:19;;;;;;;0.80;0.70;;;18.30;99.90;;;18.67;100.00;-21187.91;5055185;28;20443;-79
2021/06/03 01:43:47;;;;;;;0.70;0.60;;;18.30;99.90;;;18.64;100.00;-21187.22;5071800;28;20525;-79
2021/06/03 01:46:16;;;;;;;0.80;0.73;;;18.30;99.90;;;18.62;100.00;-21186.69;5071395;28;20451;-79
2021/06/03 01:48:44;;;;;;;0.73;0.60;;;18.30;99.90;;;18.55;100.00;-21184.91;5053658;28;20446;-79
2021/06/03 01:51:17;;;;;;;0.80;0.70;;;18.20;99.90;;;18.54;100.00;-21184.50;5066417;28;20801;-79
2021/06/03 01:53:46;;;;;;;0.70;0.60;;;18.20;99.90;;;18.52;100.00;-21183.94;5053811;28;20460;-79
2021/06/03 01:56:18;;;;;;;0.80;0.63;;;18.10;99.90;;;18.52;100.00;-21183.94;5051706;28;20460;-79
2021/06/03 01:58:47;;;;;;;1.67;0.97;;;18.10;99.90;;;18.54;100.00;-21184.63;5051276;28;20425;-79
2021/06/03 02:01:19;;;;;;;0.80;0.70;;;18.10;99.90;;;18.78;100.00;-21190.94;5057064;28;20433;-79
2021/06/03 02:03:47;;;;;;;0.70;0.67;;;18.30;99.90;;;18.75;100.00;-21190.09;5071864;28;20445;-78
2021/06/03 02:06:16;;;;;;;0.70;0.60;;;18.30;99.90;;;18.72;100.00;-21189.44;5055384;28;20448;-79
2021/06/03 02:08:45;;;;;;;0.80;0.60;;;18.30;99.90;;;18.71;100.00;-21189.16;5054731;28;20451;-79
2021/06/03 02:11:22;;;;;;;0.70;0.60;;;18.30;99.90;;;18.70;100.00;-21188.88;5039555;28;20537;-79
2021/06/03 02:13:58;;;;;;;0.70;0.60;;;18.30;99.90;;;18.89;100.00;-21193.81;5055507;28;20485;-79
2021/06/03 02:16:46;;;;;;;0.70;0.60;;;18.40;99.90;;;19.03;100.00;-21197.63;5055566;28;20551;-79
2021/06/03 02:19:22;;;;;;;0.70;0.60;;;18.60;99.90;;;19.02;100.00;-21197.34;5063284;28;20809;-79
2021/06/03 02:21:55;;;;;;;0.70;0.60;;;18.60;99.90;;;18.96;100.00;-21195.72;5056420;28;20410;-79
2021/06/03 02:24:25;;;;;;;0.70;0.60;;;18.50;99.90;;;19.02;100.00;-21197.34;5056280;28;20448;-79
2021/06/03 02:26:55;;;;;;;0.80;0.70;;;18.50;99.90;;;19.10;100.00;-21199.56;5088083;28;20432;-79
2021/06/03 02:29:24;;;;;;;1.57;1.13;;;18.60;99.90;;;19.06;100.00;-21198.44;5076246;28;20431;-80
2021/06/03 02:31:59;;;;;;;0.70;0.60;;;18.60;99.90;;;19.06;100.00;-21198.44;5055852;28;20436;-80
2021/06/03 02:34:34;;;;;;;0.77;0.70;;;18.60;99.90;;;19.02;100.00;-21197.50;5054347;28;20415;-79
2021/06/03 02:37:08;;;;;;;0.70;0.67;;;18.60;99.90;;;19.01;100.00;-21197.09;5061026;28;20542;-79
2021/06/03 02:39:37;;;;;;;1.07;0.97;;;18.50;99.90;;;18.94;100.00;-21195.16;5070297;28;20478;-79
2021/06/03 02:42:07;;;;;;;0.80;0.70;;;18.50;99.90;;;19.01;100.00;-21197.09;5073756;28;20425;-80
2021/06/03 02:44:36;;;;;;;0.80;0.70;;;18.50;99.90;;;18.89;100.00;-21193.94;5075244;28;20839;-79
2021/06/03 02:47:07;;;;;;;0.70;0.60;;;18.40;99.90;;;18.85;100.00;-21192.72;5057811;28;20488;-79
2021/06/03 02:49:36;;;;;;;0.80;0.63;;;18.40;99.90;;;18.82;100.00;-21192.16;5074318;28;20478;-79
2021/06/03 02:52:06;;;;;;;0.80;0.70;;;18.30;99.90;;;18.74;100.00;-21189.97;5073981;28;20522;-79
2021/06/03 02:54:36;;;;;;;0.80;0.70;;;18.30;99.90;;;18.75;100.00;-21190.25;5063574;28;20465;-78
2021/06/03 02:57:06;;;;;;;0.80;0.70;;;18.30;99.90;;;18.81;100.00;-21191.75;5055729;28;20406;-80
2021/06/03 02:59:35;;;;;;;0.70;0.60;;;18.40;99.90;;;19.00;100.00;-21196.94;5055254;28;20505;-79
2021/06/03 03:02:04;;;;;;;0.80;0.67;;;18.40;99.90;;;19.04;100.00;-21197.91;5054334;28;20448;-79
2021/06/03 03:04:33;;;;;;;0.80;0.70;;;18.50;99.90;;;18.90;100.00;-21194.06;5055993;28;20591;-79
2021/06/03 03:07:02;;;;;;;0.80;0.60;;;18.40;99.90;;;18.76;100.00;-21190.53;5057644;28;20572;-79
2021/06/03 03:09:32;;;;;;;0.73;0.60;;;18.30;99.90;;;18.80;100.00;-21191.47;5057123;28;20468;-79
2021/06/03 03:12:00;;;;;;;0.70;0.70;;;18.20;99.90;;;18.72;100.00;-21189.44;5056477;28;20443;-78
2021/06/03 03:14:32;;;;;;;0.70;0.60;;;18.20;99.90;;;18.68;100.00;-21188.31;5065370;28;20443;-80
2021/06/03 03:17:01;;;;;;;0.70;0.60;;;18.20;99.90;;;18.73;100.00;-21189.69;5075384;28;20424;-80
2021/06/03 03:19:29;;;;;;;0.80;0.70;;;18.30;99.90;;;18.63;100.00;-21186.97;5073742;28;20446;-79
2021/06/03 03:21:59;;;;;;;0.80;0.70;;;18.20;99.90;;;18.49;100.00;-21183.13;5073632;28;20431;-79
2021/06/03 03:24:29;;;;;;;0.70;0.70;;;18.00;99.90;;;18.40;100.00;-21180.78;5073833;28;20472;-79
2021/06/03 03:26:57;;;;;;;0.70;0.60;;;17.90;99.90;;;18.34;100.00;-21179.28;5073954;28;20944;-79
2021/06/03 03:29:26;;;;;;;0.80;0.60;;;17.90;99.90;;;18.47;100.00;-21182.56;5072911;28;20437;-79
2021/06/03 03:31:55;;;;;;;0.73;0.63;;;18.00;99.90;;;18.57;100.00;-21185.31;5075226;28;20492;-79
2021/06/03 03:34:25;;;;;;;0.70;0.60;;;18.10;99.90;;;18.61;100.00;-21186.41;5071537;28;20849;-79
2021/06/03 03:36:54;;;;;;;0.87;0.87;;;18.10;99.90;;;18.50;100.00;-21183.41;5069997;28;20452;-79
2021/06/03 03:39:22;;;;;;;0.80;0.70;;;18.10;99.90;;;18.38;100.00;-21180.25;5054287;28;20485;-79
2021/06/03 03:41:52;;;;;;;0.80;0.70;;;18.00;99.90;;;18.30;100.00;-21178.19;5055098;28;20433;-79
2021/06/03 03:44:21;;;;;;;0.70;0.60;;;17.90;99.90;;;18.17;100.00;-21174.50;5053077;28;20537;-79
2021/06/03 03:46:49;;;;;;;0.80;0.63;;;17.80;99.90;;;18.10;100.00;-21172.72;5048318;28;20978;-79
2021/06/03 03:49:23;;;;;;;0.80;0.80;;;17.70;99.90;;;18.15;100.00;-21173.94;5073069;28;20467;-79
2021/06/03 03:51:54;;;;;;;0.80;0.70;;;17.70;99.90;;;18.19;100.00;-21175.03;5073442;28;20810;-80
2021/06/03 03:54:23;;;;;;;0.80;0.70;;;17.70;99.90;;;18.24;100.00;-21176.56;5056858;28;20447;-78
2021/06/03 03:56:50;;;;;;;0.80;0.60;;;17.80;99.90;;;18.43;100.00;-21181.47;5071062;28;20489;-79
2021/06/03 03:59:18;;;;;;;0.70;0.60;;;18.00;99.90;;;18.50;100.00;-21183.53;5073658;28;20427;-79
2021/06/03 04:01:47;;;;;;;0.77;0.67;;;18.00;99.90;;;18.42;100.00;-21181.22;5069960;28;20451;-79
2021/06/03 04:04:17;;;;;;;0.73;0.70;;;18.00;99.90;;;18.41;100.00;-21180.94;5036670;28;20448;-79
2021/06/03 04:06:48;;;;;;;0.80;0.70;;;18.00;99.90;;;18.53;100.00;-21184.22;5053082;28;20475;-79
2021/06/03 04:09:17;;;;;;;0.80;0.70;;;18.00;99.90;;;18.57;100.00;-21185.44;5071884;28;20460;-79
2021/06/03 04:11:49;;;;;;;0.80;0.70;;;18.10;99.90;;;18.59;100.00;-21186.00;5059615;28;21097;-79
2021/06/03 04:14:16;;;;;;;0.80;0.70;;;18.10;99.90;;;18.58;100.00;-21185.59;5053245;28;20437;-79
2021/06/03 04:16:45;;;;;;;0.80;0.67;;;18.10;99.90;;;18.54;100.00;-21184.50;5054339;28;20417;-78
2021/06/03 04:19:15;;;;;;;0.70;0.60;;;18.00;99.90;;;18.60;100.00;-21186.13;5053013;28;20439;-79
2021/06/03 04:21:43;;;;;;;1.30;0.90;;;18.10;99.90;;;18.57;100.00;-21185.44;5055027;28;20440;-79
2021/06/03 04:24:14;;;;;;;0.70;0.60;;;18.10;99.90;;;18.39;100.00;-21180.38;5072864;28;20443;-79
2021/06/03 04:26:42;;;;;;;0.80;0.70;;;18.00;99.90;;;18.30;100.00;-21178.19;5071328;28;20477;-79
2021/06/03 04:29:10;;;;;;;0.80;0.60;;;17.80;99.90;;;18.26;100.00;-21177.09;5055986;28;20923;-79
2021/06/03 04:31:38;;;;;;;0.80;0.70;;;17.80;99.90;;;18.22;100.00;-21176.00;5072451;28;20449;-79
2021/06/03 04:34:06;;;;;;;0.80;0.70;;;17.80;99.90;;;18.32;100.00;-21178.75;5059794;28;20538;-79
2021/06/03 04:36:34;;;;;;;0.70;0.63;;;17.80;99.90;;;18.41;100.00;-21180.94;5059853;28;20426;-79
2021/06/03 04:39:04;;;;;;;0.70;0.70;;;17.90;99.90;;;18.35;100.00;-21179.44;5052842;28;20893;-79
2021/06/03 04:41:38;;;;;;;0.80;0.70;;;17.80;99.90;;;18.30;100.00;-21178.06;5036567;28;20478;-79
2021/06/03 04:44:05;;;;;;;0.80;0.70;;;17.80;99.90;;;18.32;100.00;-21178.75;5053934;28;20412;-78
2021/06/03 04:46:33;;;;;;;0.70;0.60;;;17.80;99.90;;;18.51;100.00;-21183.66;5052344;28;20462;-79
2021/06/03 04:49:01;;;;;;;0.77;0.67;;;18.00;99.90;;;18.63;100.00;-21186.81;5051794;28;20491;-79
2021/06/03 04:51:29;;;;;;;0.80;0.60;;;18.10;99.90;;;18.80;100.00;-21191.63;5063507;28;20433;-78
2021/06/03 04:53:57;;;;;;;0.80;0.70;;;18.20;99.90;;;18.85;100.00;-21192.72;5072177;28;20470;-79
2021/06/03 04:56:24;;;;;;;0.80;0.70;;;18.30;99.90;;;18.91;100.00;-21194.50;5056602;28;20446;-79
2021/06/03 04:58:53;;;;;;;0.80;0.70;;;18.30;99.90;;;18.97;100.00;-21196.13;5055852;28;20485;-78
2021/06/03 05:01:21;;;;;;;0.80;0.70;;;18.40;99.90;;;18.90;100.00;-21194.06;5071996;28;20436;-79
2021/06/03 05:03:48;;;;;;;0.80;0.70;;;18.40;99.90;;;18.91;100.00;-21194.34;5055365;28;20503;-79
2021/06/03 05:06:16;;;;;;;0.80;0.70;;;18.30;99.90;;;18.99;100.00;-21196.69;5056058;28;20486;-79
2021/06/03 05:08:44;;;;;;;0.77;0.60;;;18.30;99.90;;;19.14;100.00;-21200.66;5059496;28;20476;-78
2021/06/03 05:11:11;;;;;;;0.80;0.70;;;18.50;99.90;;;19.17;100.00;-21201.47;5073468;28;20465;-79
2021/06/03 05:13:39;;;;;;;0.80;0.60;;;18.50;99.90;;;19.18;100.00;-21201.72;5074120;28;20789;-79
2021/06/03 05:16:11;;;;;;;0.80;0.70;;;18.60;99.90;;;19.34;100.00;-21205.97;5055405;28;20511;-78
2021/06/03 05:18:38;;;;;;;0.70;0.60;;;18.80;99.90;;;19.49;100.00;-21210.09;5052743;28;20433;-78
2021/06/03 05:21:06;;;;;;;0.80;0.60;;;18.80;99.90;;;19.54;100.00;-21211.44;5053430;28;20934;-78
2021/06/03 05:23:34;;;;;;;0.80;0.80;;;18.90;99.90;;;19.73;100.00;-21216.38;5051864;28;20456;-79
2021/06/03 05:26:04;;;;;;;0.80;0.70;;;18.90;99.90;;;19.91;100.00;-21221.16;5063615;28;20448;-79
2021/06/03 05:28:32;;;;;;;0.73;0.67;;;19.10;99.90;;;20.04;100.00;-21224.72;5054982;28;20937;-78
2021/06/03 05:30:59;;;;;;;0.80;0.70;;;19.30;99.90;;;20.21;100.00;-21229.22;5055724;28;20856;-79
2021/06/03 05:33:29;;;;;;;0.80;0.70;;;19.40;99.90;;;20.30;100.00;-21231.53;5055170;28;20843;-79
2021/06/03 05:35:56;;;;;;;0.80;0.70;;;19.50;99.90;;;20.27;100.00;-21231.00;5053371;28;20781;-79
2021/06/03 05:38:24;;;;;;;0.80;0.70;;;19.50;99.90;;;20.32;100.00;-21232.09;5053453;28;20452;-79
2021/06/03 05:40:51;;;;;;;0.80;0.70;;;19.40;99.90;;;20.27;100.00;-21231.00;5067107;28;20438;-79
2021/06/03 05:43:19;;;;;;;0.80;0.60;;;19.50;99.90;;;20.34;100.00;-21232.75;5077473;28;20419;-78
2021/06/03 05:45:46;;;;;;;0.80;0.60;;;19.50;99.90;;;20.26;100.00;-21230.72;5077044;28;20404;-77
2021/06/03 05:48:14;;;;;;;0.80;0.60;;;19.50;99.90;;;20.17;100.00;-21228.25;5073471;28;21308;-78
2021/06/03 05:50:43;;;;;;;0.80;0.63;;;19.50;99.90;;;20.12;100.00;-21226.91;5062115;28;20449;-79
2021/06/03 05:53:11;;;;;;;0.80;0.70;;;19.40;99.90;;;20.11;100.00;-21226.63;5075449;28;21023;-79
2021/06/03 05:55:39;;;;;;;0.80;0.60;;;19.30;99.90;;;20.16;100.00;-21227.84;5064835;28;20436;-79
2021/06/03 05:58:06;;;;;;;0.70;0.60;;;19.50;99.90;;;20.13;100.00;-21227.16;5055895;28;20518;-79
2021/06/03 06:00:35;;;;;;;0.80;0.80;;;19.40;99.90;;;20.35;100.00;-21233.03;5056038;28;20507;-79
2021/06/03 06:03:35;;;;;;;0.80;0.70;;;19.50;99.90;;;20.54;100.00;-21237.97;5063361;28;20442;-79
2021/06/03 06:06:12;;;;;;;0.70;0.60;;;19.60;99.90;;;20.78;100.00;-21244.38;5076259;28;20859;-79
2021/06/03 06:08:40;;;;;;;0.70;0.60;;;19.80;99.90;;;21.08;100.00;-21252.56;5075027;28;21026;-79
2021/06/03 06:11:09;;;;;;;0.80;0.70;;;20.10;99.90;;;21.37;100.00;-21260.22;5058667;28;20421;-78
2021/06/03 06:13:37;;;;;;;0.80;0.60;;;20.20;99.90;;;21.44;100.00;-21262.13;5072174;28;20439;-79
2021/06/03 06:16:05;;;;;;;0.80;0.60;;;20.30;99.90;;;21.68;100.00;-21268.66;5055465;28;20420;-79
2021/06/03 06:18:34;;;;;;;0.80;0.70;;;20.50;99.90;;;22.10;100.00;-21279.81;5056631;28;20849;-79
2021/06/03 06:21:03;;;;;;;0.77;0.63;;;20.60;99.90;;;22.29;100.00;-21284.88;5075748;28;20441;-79
2021/06/03 06:23:34;;;;;;;0.80;0.80;;;20.70;99.90;;;22.19;100.00;-21282.16;5075039;28;20485;-80
2021/06/03 06:26:04;;;;;;;0.80;0.70;;;20.80;99.90;;;22.51;100.00;-21290.72;5058193;28;20530;-79
2021/06/03 06:28:32;;;;;;;0.77;0.63;;;20.80;99.90;;;22.69;100.00;-21295.34;5059807;28;20541;-80
2021/06/03 06:31:00;;;;;;;1.37;1.27;;;21.00;99.90;;;22.49;100.00;-21290.19;5071249;28;20973;-79
2021/06/03 06:33:28;;;;;;;0.70;0.60;;;21.10;99.90;;;22.34;100.00;-21286.09;5061671;28;20864;-78
2021/06/03 06:35:59;;;;;;;0.80;0.60;;;21.20;99.90;;;22.40;100.00;-21287.72;5062213;28;20497;-80
2021/06/03 06:38:28;;;;;;;0.80;0.70;;;21.00;99.90;;;21.67;100.00;-21268.38;5055897;28;20467;-79
2021/06/03 06:40:56;;;;;;;0.80;0.63;;;20.50;99.90;;;20.95;100.00;-21249.16;5038849;28;20848;-79
2021/06/03 06:43:24;;;;;;;0.80;0.80;;;20.10;99.90;;;20.62;100.00;-21240.16;5054775;28;20420;-79
2021/06/03 06:45:52;;;;;;;0.80;0.70;;;19.80;99.90;;;20.45;100.00;-21235.63;5064041;28;20427;-79
2021/06/03 06:48:21;;;;;;;0.80;0.70;;;19.80;99.90;;;20.33;100.00;-21232.34;5074956;28;20501;-79
2021/06/03 06:50:50;;;;;;;0.80;0.60;;;19.70;99.90;;;20.10;100.00;-21226.34;5074360;28;20407;-79
2021/06/03 06:53:19;;;;;;;0.80;0.70;;;19.60;99.90;;;19.88;100.00;-21220.47;5069622;28;20458;-76
2021/06/03 06:55:49;;;;;;;0.80;0.63;;;19.50;99.90;;;19.58;100.00;-19975.47;5053848;28;20412;-75
2021/06/03 06:58:17;;;;;;;0.70;0.70;;;19.20;99.90;;;19.27;100.00;-9712.13;5054730;28;20490;-77
2021/06/03 07:00:46;;;;;;;0.70;0.60;;;19.00;99.90;;;19.13;100.00;4142.03;5068899;28;20464;-75
2021/06/03 07:03:14;;;;;;;0.80;0.60;;;18.80;99.90;;;19.02;100.00;18250.19;5042657;28;20444;-76
2021/06/03 07:05:45;;;;;;;0.80;0.70;;;18.70;99.90;;;19.02;100.00;38578.56;5074134;28;20544;-76
2021/06/03 07:08:14;;;;;;;0.80;0.63;;;18.70;99.90;;;19.02;100.00;56049.69;5073790;28;20511;-75
2021/06/03 07:10:42;;;;;;;0.80;0.60;;;18.60;99.90;;;19.03;100.00;68377.81;5075811;28;20443;-76
2021/06/03 07:13:12;;;;;;;0.70;0.60;;;18.60;99.90;;;19.07;100.00;76068.41;5073983;28;20991;-76
2021/06/03 07:15:40;;;;;;;0.80;0.70;;;18.60;99.90;;;19.09;100.00;78748.50;5054416;28;20494;-76
2021/06/03 07:18:07;;;;;;;0.73;0.67;;;18.60;99.90;;;19.08;100.00;80421.59;5070673;28;20426;-77
2021/06/03 07:20:37;;;;;;;0.80;0.67;;;18.60;99.90;;;19.22;100.00;82452.03;5037952;28;20837;-76
2021/06/03 07:23:06;;;;;;;0.80;0.70;;;18.70;99.90;;;19.33;100.00;83807.75;5063564;28;20464;-76
2021/06/03 07:25:37;;;;;;;0.70;0.60;;;18.80;99.90;;;19.59;100.00;84851.66;5055187;28;20412;-75
2021/06/03 07:28:06;;;;;;;0.80;0.70;;;19.00;99.90;;;19.82;100.00;85221.28;5069398;28;20535;-76
2021/06/03 07:30:36;;;;;;;0.77;0.60;;;19.20;99.90;;;20.00;100.00;82896.38;5055359;28;20812;-75
2021/06/03 07:33:06;;;;;;;0.80;0.70;;;19.40;99.90;;;20.09;100.00;81566.53;5054483;28;20420;-76
2021/06/03 07:35:36;;;;;;;1.10;1.00;;;19.50;99.90;;;20.28;100.00;80250.75;5065954;28;20420;-75
2021/06/03 07:38:04;;;;;;;0.70;0.60;;;19.60;99.90;;;20.51;100.00;77932.16;5056682;28;20460;-75
2021/06/03 07:40:36;;;;;;;0.80;0.70;;;19.80;99.90;;;20.63;100.00;75600.28;5073479;28;20447;-76
2021/06/03 07:43:05;;;;;;;0.80;0.70;;;20.00;99.90;;;20.89;100.00;72280.09;5074505;28;20914;-76
2021/06/03 07:45:35;;;;;;;0.90;0.80;;;20.20;99.90;;;21.07;100.00;67946.81;5073619;28;20439;-76
2021/06/03 07:48:05;;;;;;;0.80;0.70;;;20.20;99.90;;;21.04;100.00;63259.91;5060726;28;20565;-76
2021/06/03 07:50:37;;;;;;;0.80;0.70;;;20.30;99.90;;;21.43;100.00;56952.13;5073094;28;20514;-76
2021/06/03 07:53:07;;;;;;;0.70;0.60;;;20.40;99.90;;;21.54;100.00;42166.75;5056539;28;20976;-76
2021/06/03 07:55:36;;;;;;;0.80;0.70;;;20.40;99.90;;;21.82;100.00;22087.53;5069272;28;20928;-77
2021/06/03 07:58:08;;;;;;;0.80;0.70;;;20.50;99.90;;;22.02;100.00;3824.06;5053383;28;20494;-76
2021/06/03 08:00:40;;;;;;;0.80;0.80;;;20.60;99.90;;;21.82;100.00;-7898.78;5055684;28;20841;-75
2021/06/03 08:03:08;;;;;;;0.73;0.60;;;20.70;99.90;;;22.25;100.00;-13598.59;5053485;28;20443;-75
2021/06/03 08:05:37;;;;;;;0.80;0.63;;;20.80;99.90;;;22.19;100.00;-20122.00;5064429;28;20475;-75
2021/06/03 08:08:06;;;;;;;0.80;0.70;;;20.90;99.90;;;22.80;100.00;-21298.34;5072315;28;20524;-75
2021/06/03 08:10:36;;;;;;;0.80;0.60;;;21.10;99.90;;;22.64;100.00;-21294.28;5055499;28;20425;-75
2021/06/03 08:13:05;;;;;;;0.70;0.60;;;21.20;99.90;;;22.65;100.00;-21294.41;5053016;28;20436;-75
2021/06/03 08:15:33;;;;;;;0.80;0.70;;;21.20;99.90;;;22.79;100.00;-21298.06;5053889;28;20871;-75
2021/06/03 08:18:04;;;;;;;0.80;0.70;;;21.30;99.90;;;22.97;100.00;-21302.84;5059369;28;20432;-76
2021/06/03 08:20:40;;;;;;;0.70;0.60;;;21.50;99.90;;;22.84;100.00;-21299.44;5052745;28;20424;-76
2021/06/03 08:23:11;;;;;;;1.20;1.10;;;21.50;99.90;;;22.64;100.00;-21294.28;5055583;28;20505;-75
2021/06/03 08:25:40;;;;;;;0.80;0.60;;;21.60;99.90;;;22.54;100.00;-21291.53;5054241;28;20439;-76
2021/06/03 08:28:07;;;;;;;0.70;0.60;;;21.70;99.90;;;22.68;100.00;-21295.22;5052854;28;20950;-76
2021/06/03 08:30:36;;;;;;;0.70;0.60;;;21.80;99.90;;;22.60;100.00;-21293.19;5052273;28;20415;-77
2021/06/03 08:33:07;;;;;;;0.70;0.60;;;21.70;99.90;;;22.71;100.00;-21295.91;5072015;28;20439;-76
2021/06/03 08:35:35;;;;;;;0.70;0.70;;;21.80;99.90;;;22.66;100.00;-21294.81;5072178;28;20790;-75
2021/06/03 08:38:08;;;;;;;0.70;0.70;;;21.70;99.90;;;22.46;100.00;-21289.22;5061656;28;20451;-75
2021/06/03 08:40:39;;;;;;;0.80;0.60;;;21.60;99.90;;;22.34;100.00;-21286.09;5036032;28;20956;-75
2021/06/03 08:43:08;;;;;;;0.80;0.70;;;21.40;99.90;;;22.84;100.00;-21299.44;5052589;28;20433;-76
2021/06/03 08:45:42;;;;;;;0.70;0.60;;;21.30;99.90;;;22.14;100.00;-21280.94;5062110;28;20447;-76
2021/06/03 08:48:13;;;;;;;0.80;0.70;;;21.10;99.90;;;21.85;100.00;-21273.03;5072077;28;20462;-76
2021/06/03 08:50:46;;;;;;;0.80;0.70;;;21.00;99.90;;;21.77;100.00;-21270.97;5072652;28;20486;-76
2021/06/03 08:53:14;;;;;;;0.80;0.73;;;20.90;99.90;;;21.60;100.00;-20272.88;5071787;28;20469;-75
2021/06/03 08:58:35;;;;;;;0.70;0.60;;;20.80;99.90;;;21.23;100.00;-8821.28;5069374;28;20446;-78
2021/06/03 09:01:05;;;;;;;0.80;0.70;;;20.60;99.90;;;21.09;100.00;554.44;5064906;28;20426;-76
2021/06/03 09:03:35;;;;;;;0.70;0.60;;;20.50;99.90;;;21.06;100.00;11647.25;5071329;28;20443;-76
2021/06/03 09:06:04;;;;;;;0.80;0.67;;;20.40;99.90;;;21.01;100.00;22497.06;5051297;28;20459;-76
2021/06/03 09:08:34;;;;;;;0.80;0.70;;;20.30;99.90;;;20.85;100.00;33265.00;5053368;28;20471;-76
2021/06/03 09:11:05;;;;;;;0.70;0.67;;;20.10;99.90;;;20.71;100.00;43773.75;5052261;28;20442;-76
2021/06/03 09:13:36;;;;;;;0.77;0.63;;;20.00;99.90;;;20.44;100.00;55187.72;5051553;28;20428;-77
2021/06/03 09:16:16;;;;;;;0.80;0.60;;;19.90;99.90;;;20.25;100.00;63508.50;5052712;28;20407;-77
2021/06/03 09:18:47;;;;;;;0.80;0.77;;;19.80;99.90;;;20.14;100.00;69511.44;5051595;28;20813;-74
2021/06/03 09:21:17;;;;;;;0.70;0.60;;;19.70;99.90;;;20.07;100.00;71844.78;5055096;28;20447;-77
2021/06/03 09:23:55;;;;;;;0.70;0.60;;;19.70;99.90;;;20.07;100.00;72514.16;5071801;28;20451;-79
2021/06/03 09:26:25;;;;;;;0.80;0.67;;;19.60;99.90;;;20.05;100.00;71173.03;5073061;28;20415;-80
2021/06/03 09:28:56;;;;;;;0.70;0.60;;;19.50;99.90;;;20.11;100.00;68504.59;5085001;28;20461;-81
2021/06/03 09:31:28;;;;;;;0.80;0.70;;;19.50;99.90;;;20.30;100.00;64515.00;5039184;28;20424;-80
2021/06/03 09:34:01;;;;;;;0.80;0.70;;;19.60;99.90;;;20.30;100.00;60174.94;5053690;28;20465;-80
2021/06/03 09:36:39;;;;;;;0.77;0.63;;;19.50;99.90;;;20.28;100.00;56172.13;5068549;28;20431;-81
2021/06/03 09:39:14;;;;;;;0.80;0.70;;;19.60;99.90;;;20.31;100.00;51180.00;5071981;28;20502;-82
2021/06/03 09:41:48;;;;;;;0.80;0.70;;;19.60;99.90;;;20.30;100.00;46523.72;5072893;28;20417;-82
2021/06/03 09:44:21;;;;;;;0.70;0.60;;;19.50;99.90;;;20.25;100.00;41485.13;5081731;28;20395;-84
2021/06/03 09:46:53;;;;;;;0.80;0.60;;;19.60;99.90;;;20.27;100.00;37077.78;5081731;28;20932;-82
2021/06/03 09:49:29;;;;;;;0.80;0.70;;;19.60;99.90;;;20.26;100.00;32236.94;5074212;28;20472;-83
2021/06/03 09:52:01;;;;;;;0.80;0.70;;;19.60;99.90;;;20.32;100.00;26996.53;5052388;28;20461;-86
2021/06/03 09:54:29;;;;;;;0.73;0.70;;;19.70;99.90;;;20.39;100.00;19357.75;5068406;28;20492;-84
2021/06/03 09:57:01;;;;;;;0.70;0.60;;;19.80;99.90;;;20.53;100.00;13279.06;5067514;28;20477;-86
2021/06/03 09:59:34;;;;;;;0.70;0.63;;;19.80;99.90;;;20.73;100.00;6891.53;5072688;28;20415;-86
2021/06/03 10:02:07;;;;;;;0.77;0.70;;;20.00;99.90;;;21.04;100.00;3416.03;5073335;28;20494;-86
2021/06/03 10:04:54;;;;;;;0.70;0.60;;;20.00;99.90;;;21.27;100.00;2079.44;5067278;28;20447;-86
2021/06/03 10:07:26;;;;;;;0.70;0.70;;;20.30;99.90;;;21.46;100.00;1006.25;5055293;28;20424;-86
2021/06/03 10:10:03;;;;;;;0.80;0.70;;;20.60;99.90;;;21.50;100.00;180.56;5052775;28;20462;-87
2021/06/03 10:12:44;;;;;;;0.70;0.60;;;20.50;99.90;;;21.53;100.00;270.53;5035813;28;20427;-86
2021/06/03 10:15:43;;;;;;;0.70;0.60;;;20.50;99.90;;;21.65;100.00;1015.63;5052675;28;20908;-85
2021/06/03 10:18:14;;;;;;;0.80;0.70;;;20.70;99.90;;;21.79;100.00;1309.47;5043865;28;20475;-85
2021/06/03 10:20:48;;;;;;;1.23;1.13;;;20.90;99.90;;;21.95;100.00;1524.03;5058633;28;20535;-85
2021/06/03 10:23:19;;;;;;;0.73;0.67;;;21.00;99.90;;;21.93;100.00;2630.75;5036424;28;20802;-84